createdAt,value
2022-09-15T00:01:01.076Z,99822.25
2022-09-15T00:03:28.594Z,99817.97
2022-09-15T00:05:55.607Z,99816.78
2022-09-15T00:08:22.569Z,99811.72
2022-09-15T00:10:54.747Z,99810.34
2022-09-15T00:13:21.867Z,99810.13
2022-09-15T00:15:48.741Z,99805.88
2022-09-15T00:18:15.548Z,99808.53
2022-09-15T00:20:42.953Z,99813.59
2022-09-15T00:23:10.637Z,99800.19
2022-09-15T00:25:51.189Z,99807.34
2022-09-15T00:28:19.873Z,99798.56
2022-09-15T00:30:51.198Z,99801.06
2022-09-15T00:33:18.727Z,99796.97
2022-09-15T00:35:46.860Z,99792.34
2022-09-15T00:38:14.112Z,99793.97
2022-09-15T00:40:49.034Z,99791.19
2022-09-15T00:43:16.790Z,99785.28
2022-09-15T00:45:44.450Z,99787.09
2022-09-15T00:48:19.289Z,99780.22
2022-09-15T00:50:49.507Z,99774.09
2022-09-15T00:53:16.558Z,99774.94
2022-09-15T00:55:47.630Z,99771.66
2022-09-15T00:58:37.848Z,99773.28
2022-09-15T01:01:04.762Z,99773.66
2022-09-15T01:03:33.195Z,99766.16
2022-09-15T01:06:25.859Z,99772.78
2022-09-15T01:08:57.305Z,99771.09
2022-09-15T01:11:24.326Z,99772.22
2022-09-15T01:13:51.069Z,99766.00
2022-09-15T01:19:53.807Z,99760.66
2022-09-15T01:22:57.889Z,99757.69
2022-09-15T01:25:43.627Z,99759.50
2022-09-15T01:28:13.627Z,99750.63
2022-09-15T01:30:42.704Z,99749.06
2022-09-15T01:33:14.849Z,99749.16
2022-09-15T01:35:44.568Z,99748.72
2022-09-15T01:38:17.455Z,99743.47
2022-09-15T01:41:08.591Z,99747.50
2022-09-15T01:43:37.029Z,99755.78
2022-09-15T01:46:04.004Z,99748.06
2022-09-15T01:48:30.928Z,99746.25
2022-09-15T01:50:59.248Z,99751.13
2022-09-15T01:53:26.058Z,99749.78
2022-09-15T01:55:56.048Z,99742.91
2022-09-15T01:58:23.149Z,99740.47
2022-09-15T02:00:57.630Z,99737.66
2022-09-15T02:03:32.430Z,99751.94
2022-09-15T02:06:08.931Z,99742.34
2022-09-15T02:08:44.968Z,99739.63
2022-09-15T02:11:17.527Z,99734.25
2022-09-15T02:14:03.516Z,99737.63
2022-09-15T02:16:32.893Z,99730.00
2022-09-15T02:19:02.908Z,99731.84
2022-09-15T02:21:48.248Z,99726.22
2022-09-15T02:24:19.189Z,99727.25
2022-09-15T02:26:47.232Z,99718.00
2022-09-15T02:29:15.308Z,99727.06
2022-09-15T02:31:42.117Z,99721.50
2022-09-15T02:34:19.094Z,99729.38
2022-09-15T02:36:45.975Z,99726.44
2022-09-15T02:39:15.650Z,99716.78
2022-09-15T02:41:42.520Z,99725.31
2022-09-15T02:44:09.787Z,99719.06
2022-09-15T02:46:36.628Z,99710.91
2022-09-15T02:49:03.631Z,99712.06
2022-09-15T02:51:31.131Z,99720.47
2022-09-15T02:53:57.989Z,99718.66
2022-09-15T02:56:24.796Z,99712.94
2022-09-15T02:58:51.611Z,99720.16
2022-09-15T03:01:18.522Z,99713.63
2022-09-15T03:03:45.650Z,99708.91
2022-09-15T03:06:21.253Z,99714.16
2022-09-15T03:08:58.635Z,99712.69
2022-09-15T03:11:26.990Z,99716.31
2022-09-15T03:13:55.054Z,99702.88
2022-09-15T03:16:21.915Z,99703.25
2022-09-15T03:18:48.788Z,99698.50
2022-09-15T03:21:18.772Z,99708.97
2022-09-15T03:23:45.786Z,99702.94
2022-09-15T03:26:12.771Z,99702.13
2022-09-15T03:28:39.728Z,99697.88
2022-09-15T03:31:07.389Z,99695.25
2022-09-15T03:33:34.297Z,99696.06
2022-09-15T03:36:01.617Z,99692.63
2022-09-15T03:38:28.447Z,99690.16
2022-09-15T03:41:00.548Z,99689.69
2022-09-15T03:43:27.913Z,99687.25
2022-09-15T03:45:55.089Z,99687.41
2022-09-15T03:48:22.772Z,99680.00
2022-09-15T03:50:50.193Z,99677.34
2022-09-15T03:53:17.848Z,99675.97
2022-09-15T03:55:45.573Z,99675.56
2022-09-15T03:58:13.155Z,99669.72
2022-09-15T04:00:41.160Z,99670.03
2022-09-15T04:03:08.147Z,99669.34
2022-09-15T04:05:35.311Z,99669.63
2022-09-15T04:08:02.389Z,99659.59
2022-09-15T04:10:29.456Z,99654.81
2022-09-15T04:12:56.410Z,99655.28
2022-09-15T04:15:23.248Z,99654.28
2022-09-15T04:17:50.031Z,99661.78
2022-09-15T04:20:17.475Z,99660.44
2022-09-15T04:22:45.165Z,99644.53
2022-09-15T04:25:12.191Z,99651.25
2022-09-15T04:27:39.098Z,99648.44
2022-09-15T04:30:07.249Z,99648.06
2022-09-15T04:32:35.727Z,99650.97
2022-09-15T04:35:03.940Z,99651.41
2022-09-15T04:37:31.515Z,99653.63
2022-09-15T04:39:58.546Z,99649.19
2022-09-15T04:42:25.571Z,99647.00
2022-09-15T04:44:52.399Z,99656.41
2022-09-15T04:47:19.689Z,99641.22
2022-09-15T04:49:46.988Z,99635.78
2022-09-15T04:52:13.854Z,99634.00
2022-09-15T04:54:40.773Z,99645.56
2022-09-15T04:57:07.690Z,99636.31
2022-09-15T04:59:34.507Z,99635.69
2022-09-15T05:02:01.370Z,99637.56
2022-09-15T05:04:28.371Z,99633.91
2022-09-15T05:06:55.250Z,99635.53
2022-09-15T05:09:22.205Z,99632.41
2022-09-15T05:11:48.967Z,99626.25
2022-09-15T05:14:15.795Z,99627.88
2022-09-15T05:16:42.695Z,99626.59
2022-09-15T05:19:09.628Z,99626.03
2022-09-15T05:21:36.615Z,99622.38
2022-09-15T05:24:03.656Z,99624.00
2022-09-15T05:26:30.634Z,99624.78
2022-09-15T05:28:57.530Z,99617.50
2022-09-15T05:31:26.799Z,99622.59
2022-09-15T05:33:53.936Z,99620.56
2022-09-15T05:36:23.831Z,99624.59
2022-09-15T05:38:51.037Z,99635.53
2022-09-15T05:41:18.476Z,99632.22
2022-09-15T05:43:48.812Z,99627.16
2022-09-15T05:46:16.055Z,99633.06
2022-09-15T05:48:42.970Z,99618.13
2022-09-15T05:51:09.931Z,99601.84
2022-09-15T05:53:36.970Z,99587.81
2022-09-15T05:56:08.494Z,99595.72
2022-09-15T05:58:35.391Z,99598.78
2022-09-15T06:01:07.445Z,99590.69
2022-09-15T06:03:35.482Z,99592.31
2022-09-15T06:06:02.916Z,99591.91
2022-09-15T06:08:34.788Z,99587.44
2022-09-15T06:11:06.235Z,99585.06
2022-09-15T06:13:33.149Z,99591.38
2022-09-15T06:16:08.358Z,99593.59
2022-09-15T06:18:36.509Z,99582.63
2022-09-15T06:21:08.254Z,99592.72
2022-09-15T06:23:35.611Z,99587.19
2022-09-15T06:26:20.552Z,99589.09
2022-09-15T06:28:51.909Z,99591.28
2022-09-15T06:31:19.178Z,99586.56
2022-09-15T06:36:36.706Z,99582.97
2022-09-15T06:39:03.670Z,99589.41
2022-09-15T06:41:47.029Z,99580.97
2022-09-15T06:44:17.490Z,99596.16
2022-09-15T06:46:44.690Z,99600.59
2022-09-15T06:49:11.583Z,99595.47
2022-09-15T06:51:38.994Z,99596.78
2022-09-15T06:54:06.082Z,99593.88
2022-09-15T06:56:37.219Z,99586.06
2022-09-15T06:59:05.150Z,99593.72
2022-09-15T07:01:32.196Z,99595.16
2022-09-15T07:04:00.987Z,99594.69
2022-09-15T07:06:28.743Z,99588.19
2022-09-15T07:08:56.050Z,99595.97
2022-09-15T07:11:22.973Z,99596.81
2022-09-15T07:13:49.917Z,99591.59
2022-09-15T07:16:19.159Z,99587.25
2022-09-15T07:18:46.912Z,99592.22
2022-09-15T07:21:15.714Z,99590.31
2022-09-15T07:23:42.804Z,99594.69
2022-09-15T07:26:23.390Z,99605.78
2022-09-15T07:28:55.111Z,99602.41
2022-09-15T07:31:22.896Z,99597.00
2022-09-15T07:33:49.908Z,99611.69
2022-09-15T07:36:16.788Z,99607.63
2022-09-15T07:38:45.195Z,99610.97
2022-09-15T07:41:22.256Z,99595.94
2022-09-15T07:43:59.170Z,99597.06
2022-09-15T07:46:26.735Z,99590.31
2022-09-15T07:48:56.370Z,99595.50
2022-09-15T07:51:23.630Z,99599.25
2022-09-15T07:53:50.593Z,99591.75
2022-09-15T07:56:20.830Z,99585.72
2022-09-15T07:58:47.898Z,99588.88
2022-09-15T08:01:15.205Z,99591.53
2022-09-15T08:03:42.908Z,99589.75
2022-09-15T08:06:09.909Z,99588.13
2022-09-15T08:08:38.898Z,99600.00
2022-09-15T08:11:10.973Z,99604.69
2022-09-15T08:13:40.330Z,99604.84
2022-09-15T08:16:12.142Z,99607.28
2022-09-15T08:18:39.344Z,99618.78
2022-09-15T08:21:07.179Z,99628.25
2022-09-15T08:23:34.152Z,99625.56
2022-09-15T08:26:01.141Z,99623.13
2022-09-15T08:28:28.095Z,99621.56
2022-09-15T08:31:00.444Z,99619.94
2022-09-15T08:33:28.012Z,99627.78
2022-09-15T11:53:04.695Z,99621.22
2022-09-15T11:55:39.860Z,99610.50
2022-09-15T11:58:17.370Z,99609.34
2022-09-15T12:01:11.588Z,99597.13
2022-09-15T12:03:38.995Z,99594.16
2022-09-15T12:06:24.832Z,99587.94
2022-09-15T12:08:55.255Z,99583.38
2022-09-15T12:11:24.514Z,99587.72
2022-09-15T12:13:52.274Z,99584.56
2022-09-15T12:16:20.643Z,99588.91
2022-09-15T12:18:59.571Z,99588.78
2022-09-15T12:21:30.611Z,99601.31
2022-09-15T12:24:33.995Z,99583.47
2022-09-15T12:27:01.417Z,99569.72
2022-09-15T12:29:28.174Z,99584.63
2022-09-15T12:32:20.811Z,99577.63
2022-09-15T12:35:15.756Z,99571.44
2022-09-15T12:37:44.456Z,99554.31
2022-09-15T12:40:38.010Z,99566.25
2022-09-15T12:43:17.052Z,99565.69
2022-09-15T12:45:53.041Z,99562.25
2022-09-15T12:48:22.349Z,99560.94
2022-09-15T12:50:54.132Z,99566.97
2022-09-15T12:53:31.316Z,99557.34
2022-09-15T12:56:07.352Z,99569.56
2022-09-15T12:58:39.386Z,99564.97
2022-09-15T13:01:18.974Z,99574.69
2022-09-15T13:03:46.168Z,99566.22
2022-09-15T13:06:25.100Z,99569.84
2022-09-15T13:09:07.757Z,99566.09
2022-09-15T13:11:36.544Z,99581.38
2022-09-15T13:14:10.804Z,99586.19
2022-09-15T13:16:40.613Z,99587.56
2022-09-15T13:19:42.481Z,99587.69
2022-09-15T13:22:12.386Z,99585.31
2022-09-15T13:25:01.432Z,99586.41
2022-09-15T13:27:48.040Z,99589.03
2022-09-15T13:30:20.949Z,99587.72
2022-09-15T13:32:53.888Z,99578.75
2022-09-15T13:35:39.357Z,99583.91
2022-09-15T13:38:43.656Z,99574.94
2022-09-15T13:41:32.931Z,99559.97
2022-09-15T13:44:28.203Z,99563.03
2022-09-15T13:47:14.545Z,99572.84
2022-09-15T13:50:18.892Z,99567.56
2022-09-15T13:53:07.093Z,99567.38
2022-09-15T13:55:42.444Z,99559.69
2022-09-15T14:01:02.405Z,99564.31
2022-09-15T14:03:37.286Z,99571.59
2022-09-15T14:06:31.222Z,99581.19
2022-09-15T14:09:00.181Z,99568.72
2022-09-15T14:11:31.768Z,99590.38
2022-09-15T14:14:00.706Z,99576.72
2022-09-15T14:16:28.045Z,99588.19
2022-09-15T14:18:57.750Z,99581.78
2022-09-15T14:21:26.524Z,99589.75
2022-09-15T14:23:55.170Z,99589.91
2022-09-15T14:26:27.046Z,99590.97
2022-09-15T14:29:00.266Z,99577.75
2022-09-15T14:31:43.037Z,99583.69
2022-09-15T14:34:18.792Z,99585.53
2022-09-15T14:36:45.602Z,99582.63
2022-09-15T14:39:12.385Z,99579.09
2022-09-15T18:51:51.208Z,99614.44
2022-09-15T18:54:18.901Z,99621.47
2022-09-15T18:56:45.661Z,99624.16
2022-09-15T18:59:15.547Z,99627.13
2022-09-15T19:01:44.545Z,99625.19
2022-09-15T19:04:11.504Z,99618.06
2022-09-15T19:06:38.406Z,99616.66
2022-09-15T19:09:05.242Z,99613.09
2022-09-15T19:11:32.122Z,99627.34
2022-09-15T19:13:59.102Z,99618.22
2022-09-15T19:16:46.568Z,99614.00
2022-09-15T19:19:12.945Z,99621.03
2022-09-15T19:21:39.821Z,99622.72
2022-09-15T19:24:06.762Z,99626.47
2022-09-15T19:26:33.721Z,99625.19
2022-09-15T19:29:00.584Z,99626.53
2022-09-15T19:31:27.589Z,99627.88
2022-09-15T19:33:54.496Z,99622.31
2022-09-15T19:36:28.368Z,99622.81
2022-09-15T19:38:56.343Z,99619.91
2022-09-15T19:41:23.248Z,99614.06
2022-09-15T19:43:50.109Z,99623.88
2022-09-15T19:46:19.384Z,99624.03
2022-09-15T19:48:49.495Z,99626.81
2022-09-15T19:51:16.942Z,99630.56
2022-09-15T19:53:44.320Z,99623.25
2022-09-15T19:56:15.563Z,99630.47
2022-09-15T19:58:42.410Z,99620.00
2022-09-15T20:01:09.814Z,99623.25
2022-09-15T20:06:21.182Z,99623.28
2022-09-15T20:08:48.019Z,99624.09
2022-09-15T20:11:15.020Z,99626.69
2022-09-15T20:13:43.499Z,99635.84
2022-09-15T20:16:18.110Z,99640.38
2022-09-15T20:18:46.789Z,99640.00
2022-09-15T20:21:26.972Z,99642.28
2022-09-15T20:24:02.369Z,99649.75
2022-09-15T20:26:31.624Z,99653.66
2022-09-15T20:29:02.159Z,99665.22
2022-09-15T20:31:29.503Z,99668.25
2022-09-15T20:33:56.352Z,99663.63
2022-09-15T20:36:24.840Z,99652.41
2022-09-15T20:38:52.294Z,99639.28
2022-09-15T20:41:22.832Z,99652.31
2022-09-15T20:43:49.953Z,99640.13
2022-09-15T20:46:19.067Z,99638.31
2022-09-15T20:48:46.650Z,99634.47
2022-09-15T20:51:17.960Z,99623.81
2022-09-15T20:53:46.027Z,99618.56
2022-09-15T20:56:13.468Z,99619.53
2022-09-15T20:58:40.573Z,99620.88
2022-09-15T21:01:08.268Z,99610.97
2022-09-15T21:03:35.863Z,99607.09
2022-09-15T21:06:07.682Z,99616.94
2022-09-15T21:08:34.891Z,99620.25
2022-09-15T21:11:02.182Z,99618.19
2022-09-15T21:13:30.179Z,99613.63
2022-09-15T21:15:58.553Z,99620.03
2022-09-15T21:18:26.322Z,99613.97
2022-09-15T21:21:00.565Z,99614.09
2022-09-15T21:23:30.283Z,99612.94
2022-09-15T21:26:02.211Z,99615.94
2022-09-15T21:28:29.382Z,99617.88
2022-09-15T21:31:06.122Z,99608.31
2022-09-15T21:33:33.282Z,99605.97
2022-09-15T21:36:07.467Z,99611.06
2022-09-15T21:38:34.823Z,99611.88
2022-09-15T21:41:01.760Z,99619.63
2022-09-15T21:43:32.842Z,99614.44
2022-09-15T21:46:00.034Z,99615.31
2022-09-15T21:48:27.761Z,99615.38
2022-09-15T21:50:54.562Z,99615.09
2022-09-15T21:53:21.464Z,99607.56
2022-09-15T21:55:51.481Z,99614.78
2022-09-15T21:58:19.283Z,99606.66
2022-09-15T22:00:46.887Z,99615.13
2022-09-15T22:03:14.025Z,99609.59
2022-09-15T22:05:41.680Z,99618.09
2022-09-15T22:08:11.502Z,99602.56
2022-09-15T22:10:38.540Z,99602.28
2022-09-15T22:13:05.981Z,99605.06
2022-09-15T22:15:33.182Z,99603.94
2022-09-15T22:18:00.107Z,99615.25
2022-09-15T22:20:28.121Z,99619.19
2022-09-15T22:23:00.748Z,99627.41
2022-09-15T22:25:27.784Z,99620.34
2022-09-15T22:27:54.639Z,99623.44
2022-09-15T22:30:21.459Z,99624.25
2022-09-15T22:32:48.258Z,99610.69
2022-09-15T22:35:15.738Z,99620.16
2022-09-15T22:37:42.520Z,99611.91
2022-09-15T22:40:10.022Z,99615.19
2022-09-15T22:42:37.099Z,99622.91
2022-09-15T22:45:04.239Z,99622.75
2022-09-15T22:47:33.202Z,99617.03
2022-09-15T22:49:59.982Z,99610.00
2022-09-15T22:52:26.819Z,99605.41
2022-09-15T22:54:53.664Z,99604.72
2022-09-15T22:57:20.484Z,99603.69
2022-09-15T22:59:47.262Z,99608.38
2022-09-15T23:02:14.174Z,99607.38
2022-09-15T23:04:40.984Z,99612.47
2022-09-15T23:07:07.741Z,99604.63
2022-09-15T23:09:34.599Z,99610.94
2022-09-15T23:12:01.960Z,99612.06
2022-09-15T23:14:28.760Z,99612.34
2022-09-15T23:16:55.601Z,99610.97
2022-09-15T23:19:22.382Z,99606.03
2022-09-15T23:21:49.239Z,99598.66
2022-09-15T23:24:17.123Z,99580.75
2022-09-15T23:26:43.984Z,99586.00
2022-09-15T23:29:10.801Z,99580.09
2022-09-15T23:31:37.775Z,99579.28
2022-09-15T23:34:04.621Z,99580.84
2022-09-15T23:36:31.505Z,99589.66
2022-09-15T23:38:58.540Z,99599.06
2022-09-15T23:41:25.399Z,99591.09
2022-09-15T23:43:52.183Z,99594.88
2022-09-15T23:46:19.080Z,99596.75
2022-09-15T23:48:45.982Z,99599.53
2022-09-15T23:51:12.934Z,99597.25
2022-09-15T23:53:39.762Z,99595.81
2022-09-15T23:56:06.983Z,99595.69
2022-09-15T23:58:33.936Z,99599.94
